^^
Station Historical Data
Daily Summary for September 6, 2017 Units:  Both    English   Metric
« Previous Day
Next Day »
Daily Weekly Monthly Yearly Custom
  High: Low: Average:
Temperature: TemperatureF °F /  -17.8 °C 54.7 °F /  12.6 °C 67 °F /  19.4 °C
Dew Point: DewpointF °F /  -17.8 °C 31.5 °F /  -0.3 °C 38.7 °F /  3.7 °C
Humidity: Humidity% 17% 38%
Wind Speed: WindSpeedMPHmph /  0km/h - 1.2mph /  1.9km/h
Wind Gust: WindSpeedGustMPHmph /  0km/h - -
Wind- - WSW
Pressure: PressureIn in /  0 hPa 30.18 in /  1021.9 hPa -
Precipitation: 0.00 in /  0 mm    
Historical Graphs
 
 
Tabular Data for September 6, 2017
Time Temperature Dew Point Pressure Wind Wind Speed Wind Gust Humidity Rainfall Rate (Hourly) solar Conditions
TemperatureF °F /  -17.8 °C DewpointF °F /  -17.8 °C PressureInin /  0hPa Calm     Humidity% HourlyPrecipInin /  0mm SolarRadiationWatts/m^2 W/m2 Conditions
00:04 60.3 °F /  15.7 °C 41.0 °F /  5 °C 30.22in /  1023.2hPa Calm     49% 0.00in /  0mm 0.0 W/m2
00:11 60.1 °F /  15.6 °C 41.4 °F /  5.2 °C 30.22in /  1023.2hPa Calm     50% 0.00in /  0mm 0.0 W/m2
00:17 59.7 °F /  15.4 °C 41.0 °F /  5 °C 30.23in /  1023.6hPa Calm     50% 0.00in /  0mm 0.0 W/m2
00:23 59.7 °F /  15.4 °C 41.5 °F /  5.3 °C 30.23in /  1023.6hPa Calm     51% 0.00in /  0mm 0.0 W/m2
00:29 59.5 °F /  15.3 °C 41.9 °F /  5.5 °C 30.23in /  1023.6hPa Calm     52% 0.00in /  0mm 0.0 W/m2
00:35 59.4 °F /  15.2 °C 42.3 °F /  5.7 °C 30.23in /  1023.6hPa Calm     53% 0.00in /  0mm 0.0 W/m2
00:41 59.4 °F /  15.2 °C 42.3 °F /  5.7 °C 30.23in /  1023.6hPa Calm   1.0mph /  1.6km/h 53% 0.00in /  0mm 0.0 W/m2
00:47 59.4 °F /  15.2 °C 42.3 °F /  5.7 °C 30.23in /  1023.6hPa Calm     53% 0.00in /  0mm 0.0 W/m2
00:53 59.2 °F /  15.1 °C 42.1 °F /  5.6 °C 30.23in /  1023.6hPa Calm     53% 0.00in /  0mm 0.0 W/m2
01:00 59.0 °F /  15 °C 42.4 °F /  5.8 °C 30.24in /  1023.9hPa Calm     54% 0.00in /  0mm 0.0 W/m2
01:06 58.8 °F /  14.9 °C 42.3 °F /  5.7 °C 30.24in /  1023.9hPa Calm     54% 0.00in /  0mm 0.0 W/m2
01:12 58.8 °F /  14.9 °C 42.6 °F /  5.9 °C 30.24in /  1023.9hPa Calm   1.0mph /  1.6km/h 55% 0.00in /  0mm 0.0 W/m2
01:18 58.8 °F /  14.9 °C 43.2 °F /  6.2 °C 30.23in /  1023.6hPa Calm   1.0mph /  1.6km/h 56% 0.00in /  0mm 0.0 W/m2
01:24 58.8 °F /  14.9 °C 43.2 °F /  6.2 °C 30.24in /  1023.9hPa Calm     56% 0.00in /  0mm 0.0 W/m2
01:30 58.8 °F /  14.9 °C 43.7 °F /  6.5 °C 30.23in /  1023.6hPa Calm     57% 0.00in /  0mm 0.0 W/m2
01:36 58.8 °F /  14.9 °C 43.2 °F /  6.2 °C 30.23in /  1023.6hPa East 2.0mph /  3.2km/h 2.0mph /  3.2km/h 56% 0.00in /  0mm 0.0 W/m2
01:45 58.8 °F /  14.9 °C 41.7 °F /  5.4 °C 30.23in /  1023.6hPa NE 0.9mph /  1.4km/h 2.0mph /  3.2km/h 53% 0.00in /  0mm 0.0 W/m2
01:51 58.6 °F /  14.8 °C 42.1 °F /  5.6 °C 30.23in /  1023.6hPa Calm   1.0mph /  1.6km/h 54% 0.00in /  0mm 0.0 W/m2
01:57 58.6 °F /  14.8 °C 42.1 °F /  5.6 °C 30.23in /  1023.6hPa NE 0.9mph /  1.4km/h 2.0mph /  3.2km/h 54% 0.00in /  0mm 0.0 W/m2
02:03 58.5 °F /  14.7 °C 41.9 °F /  5.5 °C 30.23in /  1023.6hPa Calm   3.0mph /  4.8km/h 54% 0.00in /  0mm 0.0 W/m2
02:09 58.5 °F /  14.7 °C 42.4 °F /  5.8 °C 30.23in /  1023.6hPa ENE 0.9mph /  1.4km/h 3.0mph /  4.8km/h 55% 0.00in /  0mm 0.0 W/m2
02:15 58.5 °F /  14.7 °C 42.4 °F /  5.8 °C 30.23in /  1023.6hPa Calm   2.0mph /  3.2km/h 55% 0.00in /  0mm 0.0 W/m2
02:21 58.3 °F /  14.6 °C 42.3 °F /  5.7 °C 30.22in /  1023.2hPa Calm   2.0mph /  3.2km/h 55% 0.00in /  0mm 0.0 W/m2
02:27 58.3 °F /  14.6 °C 42.3 °F /  5.7 °C 30.22in /  1023.2hPa Calm   1.0mph /  1.6km/h 55% 0.00in /  0mm 0.0 W/m2
02:33 58.3 °F /  14.6 °C 42.3 °F /  5.7 °C 30.22in /  1023.2hPa Calm   1.0mph /  1.6km/h 55% 0.00in /  0mm 0.0 W/m2
02:40 58.3 °F /  14.6 °C 42.3 °F /  5.7 °C 30.22in /  1023.2hPa Calm   1.0mph /  1.6km/h 55% 0.00in /  0mm 0.0 W/m2
02:46 58.1 °F /  14.5 °C 42.4 °F /  5.8 °C 30.21in /  1022.9hPa Calm   1.0mph /  1.6km/h 56% 0.00in /  0mm 0.0 W/m2
02:52 57.9 °F /  14.4 °C 42.3 °F /  5.7 °C 30.21in /  1022.9hPa Calm   1.0mph /  1.6km/h 56% 0.00in /  0mm 0.0 W/m2
02:58 57.9 °F /  14.4 °C 42.3 °F /  5.7 °C 30.21in /  1022.9hPa Calm     56% 0.00in /  0mm 0.0 W/m2
03:04 57.7 °F /  14.3 °C 42.1 °F /  5.6 °C 30.21in /  1022.9hPa Calm     56% 0.00in /  0mm 0.0 W/m2
03:16 57.6 °F /  14.2 °C 41.9 °F /  5.5 °C 30.20in /  1022.6hPa Calm     56% 0.00in /  0mm 0.0 W/m2
03:23 57.4 °F /  14.1 °C 41.9 °F /  5.5 °C 30.20in /  1022.6hPa Calm     56% 0.00in /  0mm 0.0 W/m2
03:29 57.4 °F /  14.1 °C 41.9 °F /  5.5 °C 30.19in /  1022.2hPa Calm     56% 0.00in /  0mm 0.0 W/m2
03:35 57.2 °F /  14 °C 42.1 °F /  5.6 °C 30.20in /  1022.6hPa Calm     57% 0.00in /  0mm 0.0 W/m2
03:41 57.0 °F /  13.9 °C 41.9 °F /  5.5 °C 30.20in /  1022.6hPa Calm     57% 0.00in /  0mm 0.0 W/m2
03:47 57.0 °F /  13.9 °C 41.9 °F /  5.5 °C 30.20in /  1022.6hPa Calm     57% 0.00in /  0mm 0.0 W/m2
03:53 57.0 °F /  13.9 °C 41.9 °F /  5.5 °C 30.20in /  1022.6hPa Calm     57% 0.00in /  0mm 0.0 W/m2
03:59 56.8 °F /  13.8 °C 42.3 °F /  5.7 °C 30.19in /  1022.2hPa Calm     58% 0.00in /  0mm 0.0 W/m2
04:05 56.8 °F /  13.8 °C 42.3 °F /  5.7 °C 30.19in /  1022.2hPa Calm     58% 0.00in /  0mm 0.0 W/m2
04:12 56.8 °F /  13.8 °C 42.3 °F /  5.7 °C 30.19in /  1022.2hPa Calm     58% 0.00in /  0mm 0.0 W/m2
04:18 56.7 °F /  13.7 °C 42.1 °F /  5.6 °C 30.19in /  1022.2hPa Calm     58% 0.00in /  0mm 0.0 W/m2
04:24 56.7 °F /  13.7 °C 42.1 °F /  5.6 °C 30.19in /  1022.2hPa Calm     58% 0.00in /  0mm 0.0 W/m2
04:30 56.5 °F /  13.6 °C 41.9 °F /  5.5 °C 30.19in /  1022.2hPa Calm     58% 0.00in /  0mm 0.0 W/m2
04:36 56.5 °F /  13.6 °C 41.9 °F /  5.5 °C 30.19in /  1022.2hPa Calm   1.0mph /  1.6km/h 58% 0.00in /  0mm 0.0 W/m2
04:42 56.5 °F /  13.6 °C 41.9 °F /  5.5 °C 30.19in /  1022.2hPa Calm   2.0mph /  3.2km/h 58% 0.00in /  0mm 0.0 W/m2
04:48 56.5 °F /  13.6 °C 41.4 °F /  5.2 °C 30.18in /  1021.9hPa Calm   3.0mph /  4.8km/h 57% 0.00in /  0mm 0.0 W/m2
04:54 56.5 °F /  13.6 °C 41.4 °F /  5.2 °C 30.19in /  1022.2hPa Calm   1.0mph /  1.6km/h 57% 0.00in /  0mm 0.0 W/m2
05:00 56.5 °F /  13.6 °C 41.4 °F /  5.2 °C 30.19in /  1022.2hPa Calm   1.0mph /  1.6km/h 57% 0.00in /  0mm 0.0 W/m2
05:06 56.3 °F /  13.5 °C 41.2 °F /  5.1 °C 30.19in /  1022.2hPa Calm   1.0mph /  1.6km/h 57% 0.00in /  0mm 0.0 W/m2
05:12 56.1 °F /  13.4 °C 41.2 °F /  5.1 °C 30.19in /  1022.2hPa Calm     57% 0.00in /  0mm 0.0 W/m2
05:18 56.1 °F /  13.4 °C 41.2 °F /  5.1 °C 30.19in /  1022.2hPa Calm     57% 0.00in /  0mm 0.0 W/m2
05:27 55.9 °F /  13.3 °C 41.4 °F /  5.2 °C 30.18in /  1021.9hPa ESE 0.9mph /  1.4km/h 4.0mph /  6.4km/h 58% 0.00in /  0mm 0.0 W/m2
05:33 55.9 °F /  13.3 °C 41.4 °F /  5.2 °C 30.19in /  1022.2hPa Calm   3.0mph /  4.8km/h 58% 0.00in /  0mm 0.0 W/m2
05:39 55.9 °F /  13.3 °C 41.0 °F /  5 °C 30.19in /  1022.2hPa Calm   1.0mph /  1.6km/h 57% 0.00in /  0mm 0.0 W/m2
05:45 55.9 °F /  13.3 °C 41.0 °F /  5 °C 30.19in /  1022.2hPa Calm     57% 0.00in /  0mm 0.0 W/m2
05:51 55.8 °F /  13.2 °C 40.8 °F /  4.9 °C 30.20in /  1022.6hPa Calm   1.0mph /  1.6km/h 57% 0.00in /  0mm 0.0 W/m2
05:57 55.6 °F /  13.1 °C 41.0 °F /  5 °C 30.20in /  1022.6hPa Calm     58% 0.00in /  0mm 0.0 W/m2
06:04 55.4 °F /  13 °C 40.8 °F /  4.9 °C 30.20in /  1022.6hPa Calm     58% 0.00in /  0mm 0.0 W/m2
06:10 55.2 °F /  12.9 °C 40.6 °F /  4.8 °C 30.20in /  1022.6hPa Calm     58% 0.00in /  0mm 0.0 W/m2
06:16 55.0 °F /  12.8 °C 41.0 °F /  5 °C 30.20in /  1022.6hPa Calm     59% 0.00in /  0mm 0.0 W/m2
06:22 54.9 °F /  12.7 °C 40.8 °F /  4.9 °C 30.20in /  1022.6hPa Calm   2.0mph /  3.2km/h 59% 0.00in /  0mm 0.0 W/m2
06:28 54.9 °F /  12.7 °C 40.8 °F /  4.9 °C 30.20in /  1022.6hPa Calm   2.0mph /  3.2km/h 59% 0.00in /  0mm 0.0 W/m2
06:34 54.9 °F /  12.7 °C 40.8 °F /  4.9 °C 30.20in /  1022.6hPa Calm   1.0mph /  1.6km/h 59% 0.00in /  0mm 0.0 W/m2
06:40 54.7 °F /  12.6 °C 40.6 °F /  4.8 °C 30.21in /  1022.9hPa Calm   1.0mph /  1.6km/h 59% 0.00in /  0mm 0.0 W/m2
06:46 54.9 °F /  12.7 °C 40.8 °F /  4.9 °C 30.21in /  1022.9hPa Calm   4.0mph /  6.4km/h 59% 0.00in /  0mm 0.0 W/m2
06:52 54.9 °F /  12.7 °C 40.3 °F /  4.6 °C 30.21in /  1022.9hPa Calm   3.0mph /  4.8km/h 58% 0.00in /  0mm 0.0 W/m2
07:00 54.9 °F /  12.7 °C 40.3 °F /  4.6 °C 30.21in /  1022.9hPa Calm   1.0mph /  1.6km/h 58% 0.00in /  0mm 0.0 W/m2
07:05 55.0 °F /  12.8 °C 40.5 °F /  4.7 °C 30.21in /  1022.9hPa Calm     58% 0.00in /  0mm 0.0 W/m2
07:11 55.0 °F /  12.8 °C 40.5 °F /  4.7 °C 30.22in /  1023.2hPa Calm     58% 0.00in /  0mm 5.0 W/m2
07:17 55.0 °F /  12.8 °C 40.5 °F /  4.7 °C 30.22in /  1023.2hPa Calm     58% 0.00in /  0mm 5.0 W/m2
07:23 55.0 °F /  12.8 °C 40.5 °F /  4.7 °C 30.22in /  1023.2hPa Calm     58% 0.00in /  0mm 5.0 W/m2
07:30 55.2 °F /  12.9 °C 40.6 °F /  4.8 °C 30.22in /  1023.2hPa Calm     58% 0.00in /  0mm 9.0 W/m2
07:35 55.6 °F /  13.1 °C 40.6 °F /  4.8 °C 30.23in /  1023.6hPa Calm     57% 0.00in /  0mm 12.0 W/m2
07:41 55.8 °F /  13.2 °C 40.8 °F /  4.9 °C 30.23in /  1023.6hPa Calm     57% 0.00in /  0mm 16.0 W/m2
07:48 56.1 °F /  13.4 °C 40.6 °F /  4.8 °C 30.23in /  1023.6hPa Calm   1.0mph /  1.6km/h 56% 0.00in /  0mm 23.0 W/m2
07:55 56.5 °F /  13.6 °C 40.5 °F /  4.7 °C 30.23in /  1023.6hPa Calm   1.0mph /  1.6km/h 55% 0.00in /  0mm 32.0 W/m2
08:00 56.7 °F /  13.7 °C 40.6 °F /  4.8 °C 30.24in /  1023.9hPa Calm     55% 0.00in /  0mm 39.0 W/m2
08:06 57.0 °F /  13.9 °C 41.0 °F /  5 °C 30.24in /  1023.9hPa Calm     55% 0.00in /  0mm 51.0 W/m2
08:12 57.4 °F /  14.1 °C 40.8 °F /  4.9 °C 30.30in /  1026hPa Calm     54% 0.00in /  0mm 54.0 W/m2
08:18 57.7 °F /  14.3 °C 40.6 °F /  4.8 °C 30.30in /  1026hPa Calm     53% 0.00in /  0mm 58.0 W/m2
08:24 58.1 °F /  14.5 °C 41.0 °F /  5 °C 30.30in /  1026hPa Calm     53% 0.00in /  0mm 72.0 W/m2
08:30 58.5 °F /  14.7 °C 41.4 °F /  5.2 °C 30.30in /  1026hPa Calm     53% 0.00in /  0mm 113.0 W/m2
08:36 58.8 °F /  14.9 °C 41.7 °F /  5.4 °C 30.30in /  1026hPa Calm     53% 0.00in /  0mm 86.0 W/m2
08:42 59.4 °F /  15.2 °C 41.7 °F /  5.4 °C 30.30in /  1026hPa Calm   1.0mph /  1.6km/h 52% 0.00in /  0mm 70.0 W/m2
08:49 59.7 °F /  15.4 °C 41.5 °F /  5.3 °C 30.30in /  1026hPa Calm     51% 0.00in /  0mm 84.0 W/m2
08:55 60.4 °F /  15.8 °C 41.7 °F /  5.4 °C 30.30in /  1026hPa ENE 0.9mph /  1.4km/h 3.0mph /  4.8km/h 50% 0.00in /  0mm 79.0 W/m2
09:01 61.2 °F /  16.2 °C 41.4 °F /  5.2 °C 30.30in /  1026hPa Calm   4.0mph /  6.4km/h 48% 0.00in /  0mm 88.0 W/m2
09:07 62.1 °F /  16.7 °C 41.5 °F /  5.3 °C 30.30in /  1026hPa ENE 2.9mph /  4.7km/h 3.0mph /  4.8km/h 47% 0.00in /  0mm 100.0 W/m2
09:13 62.8 °F /  17.1 °C 41.7 °F /  5.4 °C 30.30in /  1026hPa Calm   2.0mph /  3.2km/h 46% 0.00in /  0mm 91.0 W/m2
09:19 63.3 °F /  17.4 °C 41.5 °F /  5.3 °C 30.30in /  1026hPa Calm   3.0mph /  4.8km/h 45% 0.00in /  0mm 100.0 W/m2
09:25 63.9 °F /  17.7 °C 41.5 °F /  5.3 °C 30.30in /  1026hPa Calm     44% 0.00in /  0mm 139.0 W/m2
09:31 64.6 °F /  18.1 °C 41.5 °F /  5.3 °C 30.31in /  1026.3hPa Calm     43% 0.00in /  0mm 149.0 W/m2
09:38 65.3 °F /  18.5 °C 42.3 °F /  5.7 °C 30.31in /  1026.3hPa Calm   2.0mph /  3.2km/h 43% 0.00in /  0mm 380.0 W/m2
09:44 66.4 °F /  19.1 °C 41.9 °F /  5.5 °C 30.31in /  1026.3hPa Calm   1.0mph /  1.6km/h 41% 0.00in /  0mm 411.0 W/m2
09:50 67.6 °F /  19.8 °C 42.4 °F /  5.8 °C 30.32in /  1026.6hPa NNW 0.9mph /  1.4km/h 2.0mph /  3.2km/h 40% 0.00in /  0mm 207.0 W/m2
09:56 68.9 °F /  20.5 °C 42.3 °F /  5.7 °C 30.31in /  1026.3hPa NNW 0.9mph /  1.4km/h 1.0mph /  1.6km/h 38% 0.00in /  0mm 207.0 W/m2
10:02 69.4 °F /  20.8 °C 42.8 °F /  6 °C 30.31in /  1026.3hPa North 2.9mph /  4.7km/h 5.0mph /  8km/h 38% 0.00in /  0mm 434.0 W/m2
10:08 70.2 °F /  21.2 °C 42.6 °F /  5.9 °C 30.31in /  1026.3hPa Calm   2.0mph /  3.2km/h 37% 0.00in /  0mm 457.0 W/m2
10:14 70.9 °F /  21.6 °C 43.3 °F /  6.3 °C 30.30in /  1026hPa Calm   1.0mph /  1.6km/h 37% 0.00in /  0mm 461.0 W/m2
10:21 71.1 °F /  21.7 °C 42.8 °F /  6 °C 30.30in /  1026hPa Calm     36% 0.00in /  0mm 492.0 W/m2
10:27 71.8 °F /  22.1 °C 42.6 °F /  5.9 °C 30.30in /  1026hPa Calm   2.0mph /  3.2km/h 35% 0.00in /  0mm 512.0 W/m2
10:33 72.5 °F /  22.5 °C 42.6 °F /  5.9 °C 30.29in /  1025.6hPa Calm   1.0mph /  1.6km/h 34% 0.00in /  0mm 531.0 W/m2
10:39 73.2 °F /  22.9 °C 40.8 °F /  4.9 °C 30.30in /  1026hPa Calm   4.0mph /  6.4km/h 31% 0.00in /  0mm 547.0 W/m2
10:45 73.9 °F /  23.3 °C 41.4 °F /  5.2 °C 30.29in /  1025.6hPa Calm   5.0mph /  8km/h 31% 0.00in /  0mm 561.0 W/m2
10:51 74.8 °F /  23.8 °C 40.5 °F /  4.7 °C 30.30in /  1026hPa NNW 4.0mph /  6.4km/h 6.0mph /  9.7km/h 29% 0.00in /  0mm 582.0 W/m2
10:57 75.4 °F /  24.1 °C 41.0 °F /  5 °C 30.30in /  1026hPa NW 0.9mph /  1.4km/h 6.0mph /  9.7km/h 29% 0.00in /  0mm 596.0 W/m2
11:03 75.7 °F /  24.3 °C 41.2 °F /  5.1 °C 30.30in /  1026hPa NW 2.0mph /  3.2km/h 6.0mph /  9.7km/h 29% 0.00in /  0mm 606.0 W/m2
11:09 76.1 °F /  24.5 °C 41.5 °F /  5.3 °C 30.30in /  1026hPa North 4.9mph /  7.9km/h 5.0mph /  8km/h 29% 0.00in /  0mm 608.0 W/m2
11:15 76.3 °F /  24.6 °C 41.7 °F /  5.4 °C 30.29in /  1025.6hPa Calm   6.0mph /  9.7km/h 29% 0.00in /  0mm 624.0 W/m2
11:21 76.5 °F /  24.7 °C 41.9 °F /  5.5 °C 30.29in /  1025.6hPa Calm   5.0mph /  8km/h 29% 0.00in /  0mm 629.0 W/m2
11:27 76.6 °F /  24.8 °C 42.1 °F /  5.6 °C 30.29in /  1025.6hPa North 4.0mph /  6.4km/h 6.0mph /  9.7km/h 29% 0.00in /  0mm 640.0 W/m2
11:33 77.2 °F /  25.1 °C 40.6 °F /  4.8 °C 30.29in /  1025.6hPa NNW 2.9mph /  4.7km/h 6.0mph /  9.7km/h 27% 0.00in /  0mm 647.0 W/m2
11:39 77.5 °F /  25.3 °C 41.0 °F /  5 °C 30.29in /  1025.6hPa Calm   3.0mph /  4.8km/h 27% 0.00in /  0mm 657.0 W/m2
11:45 77.9 °F /  25.5 °C 41.2 °F /  5.1 °C 30.29in /  1025.6hPa North 4.0mph /  6.4km/h 6.0mph /  9.7km/h 27% 0.00in /  0mm 663.0 W/m2
11:51 78.3 °F /  25.7 °C 41.5 °F /  5.3 °C 30.28in /  1025.3hPa North 2.0mph /  3.2km/h 8.0mph /  12.9km/h 27% 0.00in /  0mm 679.0 W/m2
11:57 78.6 °F /  25.9 °C 39.9 °F /  4.4 °C 30.28in /  1025.3hPa NW 2.0mph /  3.2km/h 5.0mph /  8km/h 25% 0.00in /  0mm 684.0 W/m2
12:03 79.0 °F /  26.1 °C 40.1 °F /  4.5 °C 30.28in /  1025.3hPa North 0.9mph /  1.4km/h 5.0mph /  8km/h 25% 0.00in /  0mm 687.0 W/m2
12:09 79.5 °F /  26.4 °C 39.6 °F /  4.2 °C 30.28in /  1025.3hPa NNW 2.9mph /  4.7km/h 8.0mph /  12.9km/h 24% 0.00in /  0mm 689.0 W/m2
12:15 79.5 °F /  26.4 °C 40.6 °F /  4.8 °C 30.27in /  1024.9hPa WNW 0.9mph /  1.4km/h 2.0mph /  3.2km/h 25% 0.00in /  0mm 700.0 W/m2
12:21 80.1 °F /  26.7 °C 40.1 °F /  4.5 °C 30.27in /  1024.9hPa NW 2.0mph /  3.2km/h 5.0mph /  8km/h 24% 0.00in /  0mm 701.0 W/m2
12:27 80.2 °F /  26.8 °C 40.1 °F /  4.5 °C 30.27in /  1024.9hPa WNW 2.9mph /  4.7km/h 9.0mph /  14.5km/h 24% 0.00in /  0mm 700.0 W/m2
12:33 80.1 °F /  26.7 °C 40.1 °F /  4.5 °C 30.27in /  1024.9hPa WNW 4.9mph /  7.9km/h 8.0mph /  12.9km/h 24% 0.00in /  0mm 701.0 W/m2
12:39 80.1 °F /  26.7 °C 38.8 °F /  3.8 °C 30.27in /  1024.9hPa West 0.9mph /  1.4km/h 13.0mph /  20.9km/h 23% 0.00in /  0mm 696.0 W/m2
12:45 80.1 °F /  26.7 °C 40.1 °F /  4.5 °C 30.27in /  1024.9hPa NW 2.9mph /  4.7km/h 11.0mph /  17.7km/h 24% 0.00in /  0mm 696.0 W/m2
12:51 80.2 °F /  26.8 °C 39.0 °F /  3.9 °C 30.26in /  1024.6hPa North 4.9mph /  7.9km/h 10.0mph /  16.1km/h 23% 0.00in /  0mm 698.0 W/m2
12:57 80.1 °F /  26.7 °C 38.8 °F /  3.8 °C 30.26in /  1024.6hPa NW 2.9mph /  4.7km/h 9.0mph /  14.5km/h 23% 0.00in /  0mm 696.0 W/m2
13:03 80.1 °F /  26.7 °C 38.8 °F /  3.8 °C 30.26in /  1024.6hPa NNW 2.9mph /  4.7km/h 10.0mph /  16.1km/h 23% 0.00in /  0mm 694.0 W/m2
13:09 80.2 °F /  26.8 °C 39.0 °F /  3.9 °C 30.26in /  1024.6hPa North 2.9mph /  4.7km/h 14.0mph /  22.5km/h 23% 0.00in /  0mm 694.0 W/m2
13:15 80.2 °F /  26.8 °C 39.0 °F /  3.9 °C 30.25in /  1024.3hPa NNW 2.0mph /  3.2km/h 8.0mph /  12.9km/h 23% 0.00in /  0mm 694.0 W/m2
13:21 81.0 °F /  27.2 °C 39.7 °F /  4.3 °C 30.25in /  1024.3hPa NE 0.9mph /  1.4km/h 5.0mph /  8km/h 23% 0.00in /  0mm 687.0 W/m2
13:27 81.3 °F /  27.4 °C 38.8 °F /  3.8 °C 30.25in /  1024.3hPa NNW 2.9mph /  4.7km/h 7.0mph /  11.3km/h 22% 0.00in /  0mm 705.0 W/m2
13:33 81.3 °F /  27.4 °C 38.8 °F /  3.8 °C 30.25in /  1024.3hPa NW 4.0mph /  6.4km/h 13.0mph /  20.9km/h 22% 0.00in /  0mm 694.0 W/m2
13:39 81.5 °F /  27.5 °C 39.0 °F /  3.9 °C 30.24in /  1023.9hPa NW 2.9mph /  4.7km/h 10.0mph /  16.1km/h 22% 0.00in /  0mm 698.0 W/m2
13:45 81.3 °F /  27.4 °C 39.9 °F /  4.4 °C 30.24in /  1023.9hPa NNW 6.0mph /  9.7km/h 12.0mph /  19.3km/h 23% 0.00in /  0mm 687.0 W/m2
13:51 81.1 °F /  27.3 °C 39.7 °F /  4.3 °C 30.24in /  1023.9hPa WNW 6.9mph /  11.1km/h 8.0mph /  12.9km/h 23% 0.00in /  0mm 680.0 W/m2
13:57 81.3 °F /  27.4 °C 39.9 °F /  4.4 °C 30.24in /  1023.9hPa WNW 11.0mph /  17.7km/h 13.0mph /  20.9km/h 23% 0.00in /  0mm 671.0 W/m2
14:03 81.7 °F /  27.6 °C 40.3 °F /  4.6 °C 30.24in /  1023.9hPa North 6.9mph /  11.1km/h 9.0mph /  14.5km/h 23% 0.00in /  0mm 661.0 W/m2
14:09 81.9 °F /  27.7 °C 39.2 °F /  4 °C 30.23in /  1023.6hPa NNW 8.1mph /  13km/h 12.0mph /  19.3km/h 22% 0.00in /  0mm 643.0 W/m2
14:15 81.9 °F /  27.7 °C 39.2 °F /  4 °C 30.23in /  1023.6hPa North 2.9mph /  4.7km/h 10.0mph /  16.1km/h 22% 0.00in /  0mm 631.0 W/m2
14:21 81.7 °F /  27.6 °C 39.2 °F /  4 °C 30.22in /  1023.2hPa North 12.1mph /  19.5km/h 12.1mph /  19.5km/h 22% 0.00in /  0mm 628.0 W/m2
14:27 81.9 °F /  27.7 °C 39.2 °F /  4 °C 30.22in /  1023.2hPa NNW 6.0mph /  9.7km/h 11.0mph /  17.7km/h 22% 0.00in /  0mm 619.0 W/m2
14:33 81.9 °F /  27.7 °C 39.2 °F /  4 °C 30.22in /  1023.2hPa WNW 0.9mph /  1.4km/h 8.0mph /  12.9km/h 22% 0.00in /  0mm 610.0 W/m2
14:39 82.0 °F /  27.8 °C 39.4 °F /  4.1 °C 30.22in /  1023.2hPa NNE 4.0mph /  6.4km/h 10.0mph /  16.1km/h 22% 0.00in /  0mm 596.0 W/m2
14:45 82.2 °F /  27.9 °C 38.5 °F /  3.6 °C 30.22in /  1023.2hPa NW 4.0mph /  6.4km/h 14.0mph /  22.5km/h 21% 0.00in /  0mm 573.0 W/m2
14:52 82.2 °F /  27.9 °C 38.5 °F /  3.6 °C 30.21in /  1022.9hPa NNW 6.0mph /  9.7km/h 8.0mph /  12.9km/h 21% 0.00in /  0mm 554.0 W/m2
14:57 82.2 °F /  27.9 °C 38.5 °F /  3.6 °C 30.21in /  1022.9hPa WSW 0.9mph /  1.4km/h 10.0mph /  16.1km/h 21% 0.00in /  0mm 543.0 W/m2
15:03 82.6 °F /  28.1 °C 38.7 °F /  3.7 °C 30.20in /  1022.6hPa North 8.1mph /  13km/h 9.0mph /  14.5km/h 21% 0.00in /  0mm 536.0 W/m2
15:09 82.6 °F /  28.1 °C 37.4 °F /  3 °C 30.20in /  1022.6hPa North 6.0mph /  9.7km/h 10.0mph /  16.1km/h 20% 0.00in /  0mm 515.0 W/m2
15:16 82.6 °F /  28.1 °C 37.4 °F /  3 °C 30.20in /  1022.6hPa NW 0.9mph /  1.4km/h 10.0mph /  16.1km/h 20% 0.00in /  0mm 510.0 W/m2
15:22 82.6 °F /  28.1 °C 37.4 °F /  3 °C 30.20in /  1022.6hPa NW 2.9mph /  4.7km/h 9.0mph /  14.5km/h 20% 0.00in /  0mm 496.0 W/m2
15:28 82.8 °F /  28.2 °C 36.3 °F /  2.4 °C 30.20in /  1022.6hPa NNW 4.9mph /  7.9km/h 11.0mph /  17.7km/h 19% 0.00in /  0mm 471.0 W/m2
15:34 82.8 °F /  28.2 °C 37.6 °F /  3.1 °C 30.20in /  1022.6hPa Calm   3.0mph /  4.8km/h 20% 0.00in /  0mm 450.0 W/m2
15:40 82.6 °F /  28.1 °C 37.4 °F /  3 °C 30.20in /  1022.6hPa NNW 8.1mph /  13km/h 11.0mph /  17.7km/h 20% 0.00in /  0mm 431.0 W/m2
15:46 81.9 °F /  27.7 °C 38.1 °F /  3.4 °C 30.20in /  1022.6hPa WSW 2.0mph /  3.2km/h 9.0mph /  14.5km/h 21% 0.00in /  0mm 417.0 W/m2
15:52 82.0 °F /  27.8 °C 37.0 °F /  2.8 °C 30.20in /  1022.6hPa NNW 4.0mph /  6.4km/h 9.0mph /  14.5km/h 20% 0.00in /  0mm 403.0 W/m2
15:58 82.2 °F /  27.9 °C 35.8 °F /  2.1 °C 30.20in /  1022.6hPa NNW 2.0mph /  3.2km/h 10.0mph /  16.1km/h 19% 0.00in /  0mm 378.0 W/m2
16:04 82.6 °F /  28.1 °C 36.1 °F /  2.3 °C 30.20in /  1022.6hPa NNW 6.9mph /  11.1km/h 7.0mph /  11.3km/h 19% 0.00in /  0mm 371.0 W/m2
16:10 82.8 °F /  28.2 °C 36.3 °F /  2.4 °C 30.20in /  1022.6hPa Calm   9.0mph /  14.5km/h 19% 0.00in /  0mm 341.0 W/m2
16:16 82.6 °F /  28.1 °C 34.7 °F /  1.5 °C 30.20in /  1022.6hPa SSW 2.9mph /  4.7km/h 4.0mph /  6.4km/h 18% 0.00in /  0mm 325.0 W/m2
16:22 82.4 °F /  28 °C 36.0 °F /  2.2 °C 30.20in /  1022.6hPa NW 8.9mph /  14.3km/h 9.0mph /  14.5km/h 19% 0.00in /  0mm 311.0 W/m2
16:28 82.0 °F /  27.8 °C 38.3 °F /  3.5 °C 30.20in /  1022.6hPa North 2.0mph /  3.2km/h 7.0mph /  11.3km/h 21% 0.00in /  0mm 306.0 W/m2
16:34 82.0 °F /  27.8 °C 37.0 °F /  2.8 °C 30.20in /  1022.6hPa Calm   8.0mph /  12.9km/h 20% 0.00in /  0mm 288.0 W/m2
16:40 82.2 °F /  27.9 °C 35.8 °F /  2.1 °C 30.20in /  1022.6hPa West 8.1mph /  13km/h 11.0mph /  17.7km/h 19% 0.00in /  0mm 272.0 W/m2
16:46 81.7 °F /  27.6 °C 32.5 °F /  0.3 °C 30.20in /  1022.6hPa West 2.0mph /  3.2km/h 5.0mph /  8km/h 17% 0.00in /  0mm 243.0 W/m2
16:52 81.5 °F /  27.5 °C 35.2 °F /  1.8 °C 30.21in /  1022.9hPa West 8.9mph /  14.3km/h 10.0mph /  16.1km/h 19% 0.00in /  0mm 225.0 W/m2
16:58 81.1 °F /  27.3 °C 36.3 °F /  2.4 °C 30.21in /  1022.9hPa WNW 2.0mph /  3.2km/h 9.0mph /  14.5km/h 20% 0.00in /  0mm 209.0 W/m2
17:04 81.0 °F /  27.2 °C 36.1 °F /  2.3 °C 30.21in /  1022.9hPa WNW 0.9mph /  1.4km/h 7.0mph /  11.3km/h 20% 0.00in /  0mm 195.0 W/m2
17:10 81.0 °F /  27.2 °C 37.4 °F /  3 °C 30.21in /  1022.9hPa WNW 2.0mph /  3.2km/h 7.0mph /  11.3km/h 21% 0.00in /  0mm 178.0 W/m2
17:16 80.8 °F /  27.1 °C 36.0 °F /  2.2 °C 30.21in /  1022.9hPa WNW 4.9mph /  7.9km/h 8.0mph /  12.9km/h 20% 0.00in /  0mm 128.0 W/m2
17:22 80.2 °F /  26.8 °C 35.6 °F /  2 °C 30.21in /  1022.9hPa SW 2.0mph /  3.2km/h 6.0mph /  9.7km/h 20% 0.00in /  0mm 139.0 W/m2
17:28 80.1 °F /  26.7 °C 35.4 °F /  1.9 °C 30.21in /  1022.9hPa Calm   3.0mph /  4.8km/h 20% 0.00in /  0mm 121.0 W/m2
17:34 80.1 °F /  26.7 °C 36.7 °F /  2.6 °C 30.20in /  1022.6hPa WNW 0.9mph /  1.4km/h 7.0mph /  11.3km/h 21% 0.00in /  0mm 107.0 W/m2
17:40 79.9 °F /  26.6 °C 36.5 °F /  2.5 °C 30.21in /  1022.9hPa West 2.0mph /  3.2km/h 6.0mph /  9.7km/h 21% 0.00in /  0mm 93.0 W/m2
17:46 79.5 °F /  26.4 °C 37.4 °F /  3 °C 30.21in /  1022.9hPa West 0.9mph /  1.4km/h 1.0mph /  1.6km/h 22% 0.00in /  0mm 81.0 W/m2
17:52 79.3 °F /  26.3 °C 37.2 °F /  2.9 °C 30.21in /  1022.9hPa WSW 4.9mph /  7.9km/h 6.0mph /  9.7km/h 22% 0.00in /  0mm 69.0 W/m2
17:58 79.0 °F /  26.1 °C 35.8 °F /  2.1 °C 30.22in /  1023.2hPa West 2.9mph /  4.7km/h 5.0mph /  8km/h 21% 0.00in /  0mm 49.0 W/m2
18:04 78.4 °F /  25.8 °C 36.5 °F /  2.5 °C 30.22in /  1023.2hPa West 10.1mph /  16.3km/h 11.0mph /  17.7km/h 22% 0.00in /  0mm 40.0 W/m2
18:10 77.5 °F /  25.3 °C 35.8 °F /  2.1 °C 30.22in /  1023.2hPa WSW 4.0mph /  6.4km/h 9.0mph /  14.5km/h 22% 0.00in /  0mm 32.0 W/m2
18:16 77.0 °F /  25 °C 36.3 °F /  2.4 °C 30.22in /  1023.2hPa WSW 2.0mph /  3.2km/h 5.0mph /  8km/h 23% 0.00in /  0mm 25.0 W/m2
18:22 76.5 °F /  24.7 °C 36.0 °F /  2.2 °C 30.22in /  1023.2hPa Calm   3.0mph /  4.8km/h 23% 0.00in /  0mm 18.0 W/m2
18:28 76.1 °F /  24.5 °C 36.7 °F /  2.6 °C 30.22in /  1023.2hPa SW 0.9mph /  1.4km/h 4.0mph /  6.4km/h 24% 0.00in /  0mm 12.0 W/m2
18:34 75.6 °F /  24.2 °C 36.3 °F /  2.4 °C 30.22in /  1023.2hPa Calm   7.0mph /  11.3km/h 24% 0.00in /  0mm 7.0 W/m2
18:40 75.2 °F /  24 °C 37.0 °F /  2.8 °C 30.22in /  1023.2hPa Calm   2.0mph /  3.2km/h 25% 0.00in /  0mm 0.0 W/m2
18:46 74.8 °F /  23.8 °C 37.6 °F /  3.1 °C 30.23in /  1023.6hPa WSW 0.9mph /  1.4km/h 3.0mph /  4.8km/h 26% 0.00in /  0mm 0.0 W/m2
18:52 74.5 °F /  23.6 °C 37.4 °F /  3 °C 30.23in /  1023.6hPa WNW 0.9mph /  1.4km/h 3.0mph /  4.8km/h 26% 0.00in /  0mm 0.0 W/m2
18:58 73.9 °F /  23.3 °C 37.8 °F /  3.2 °C 30.23in /  1023.6hPa Calm     27% 0.00in /  0mm 0.0 W/m2
19:04 73.6 °F /  23.1 °C 37.6 °F /  3.1 °C 30.23in /  1023.6hPa West 0.9mph /  1.4km/h 5.0mph /  8km/h 27% 0.00in /  0mm 0.0 W/m2
19:10 73.2 °F /  22.9 °C 37.2 °F /  2.9 °C 30.23in /  1023.6hPa Calm   1.0mph /  1.6km/h 27% 0.00in /  0mm 0.0 W/m2
19:16 72.9 °F /  22.7 °C 37.8 °F /  3.2 °C 30.24in /  1023.9hPa Calm     28% 0.00in /  0mm 0.0 W/m2
19:22 72.5 °F /  22.5 °C 37.6 °F /  3.1 °C 30.24in /  1023.9hPa Calm     28% 0.00in /  0mm 0.0 W/m2
19:28 72.0 °F /  22.2 °C 37.0 °F /  2.8 °C 30.24in /  1023.9hPa Calm     28% 0.00in /  0mm 0.0 W/m2
19:34 71.4 °F /  21.9 °C 37.6 °F /  3.1 °C 30.24in /  1023.9hPa Calm     29% 0.00in /  0mm 0.0 W/m2
19:40 71.1 °F /  21.7 °C 37.2 °F /  2.9 °C 30.24in /  1023.9hPa Calm     29% 0.00in /  0mm 0.0 W/m2
19:47 70.3 °F /  21.3 °C 37.4 °F /  3 °C 30.24in /  1023.9hPa Calm     30% 0.00in /  0mm 0.0 W/m2
19:53 69.6 °F /  20.9 °C 36.9 °F /  2.7 °C 30.25in /  1024.3hPa Calm     30% 0.00in /  0mm 0.0 W/m2
19:59 69.1 °F /  20.6 °C 37.2 °F /  2.9 °C 30.25in /  1024.3hPa Calm     31% 0.00in /  0mm 0.0 W/m2
20:05 68.5 °F /  20.3 °C 36.7 °F /  2.6 °C 30.25in /  1024.3hPa Calm     31% 0.00in /  0mm 0.0 W/m2
20:11 67.8 °F /  19.9 °C 36.1 °F /  2.3 °C 30.25in /  1024.3hPa Calm     31% 0.00in /  0mm 0.0 W/m2
20:17 67.5 °F /  19.7 °C 35.8 °F /  2.1 °C 30.25in /  1024.3hPa Calm     31% 0.00in /  0mm 0.0 W/m2
20:23 66.9 °F /  19.4 °C 35.2 °F /  1.8 °C 30.26in /  1024.6hPa Calm     31% 0.00in /  0mm 0.0 W/m2
20:29 66.4 °F /  19.1 °C 34.9 °F /  1.6 °C 30.26in /  1024.6hPa Calm     31% 0.00in /  0mm 0.0 W/m2
20:35 65.8 °F /  18.8 °C 34.3 °F /  1.3 °C 30.27in /  1024.9hPa Calm     31% 0.00in /  0mm 0.0 W/m2
20:41 65.5 °F /  18.6 °C 34.9 °F /  1.6 °C 30.27in /  1024.9hPa Calm     32% 0.00in /  0mm 0.0 W/m2
20:47 64.9 °F /  18.3 °C 34.3 °F /  1.3 °C 30.27in /  1024.9hPa Calm     32% 0.00in /  0mm 0.0 W/m2
20:53 64.4 °F /  18 °C 34.0 °F /  1.1 °C 30.28in /  1025.3hPa Calm     32% 0.00in /  0mm 0.0 W/m2
20:59 64.0 °F /  17.8 °C 33.6 °F /  0.9 °C 30.28in /  1025.3hPa Calm     32% 0.00in /  0mm 0.0 W/m2
21:05 63.7 °F /  17.6 °C 34.0 °F /  1.1 °C 30.29in /  1025.6hPa Calm     33% 0.00in /  0mm 0.0 W/m2
21:11 63.1 °F /  17.3 °C 33.6 °F /  0.9 °C 30.29in /  1025.6hPa East 3.0mph /  4.8km/h 3.0mph /  4.8km/h 33% 0.00in /  0mm 0.0 W/m2
21:18 62.8 °F /  17.1 °C 32.5 °F /  0.3 °C 30.29in /  1025.6hPa Calm   1.0mph /  1.6km/h 32% 0.00in /  0mm 0.0 W/m2
21:26 62.8 °F /  17.1 °C 33.3 °F /  0.7 °C 30.29in /  1025.6hPa Calm   1.0mph /  1.6km/h 33% 0.00in /  0mm 0.0 W/m2
21:32 62.8 °F /  17.1 °C 33.3 °F /  0.7 °C 30.30in /  1026hPa Calm     33% 0.00in /  0mm 0.0 W/m2
21:38 62.4 °F /  16.9 °C 32.2 °F /  0.1 °C 30.30in /  1026hPa Calm     32% 0.00in /  0mm 0.0 W/m2
21:44 62.2 °F /  16.8 °C 32.0 °F /  0 °C 30.30in /  1026hPa Calm     32% 0.00in /  0mm 0.0 W/m2
21:50 62.1 °F /  16.7 °C 32.5 °F /  0.3 °C 30.30in /  1026hPa Calm     33% 0.00in /  0mm 0.0 W/m2
21:56 61.5 °F /  16.4 °C 32.2 °F /  0.1 °C 30.30in /  1026hPa Calm     33% 0.00in /  0mm 0.0 W/m2
22:02 61.3 °F /  16.3 °C 32.7 °F /  0.4 °C 30.30in /  1026hPa Calm     34% 0.00in /  0mm 0.0 W/m2
22:08 61.0 °F /  16.1 °C 31.6 °F /  -0.2 °C 30.30in /  1026hPa Calm     33% 0.00in /  0mm 0.0 W/m2
22:14 60.6 °F /  15.9 °C 32.2 °F /  0.1 °C 30.31in /  1026.3hPa Calm     34% 0.00in /  0mm 0.0 W/m2
22:20 60.3 °F /  15.7 °C 31.8 °F /  -0.1 °C 30.31in /  1026.3hPa Calm     34% 0.00in /  0mm 0.0 W/m2
22:26 59.9 °F /  15.5 °C 31.5 °F /  -0.3 °C 30.31in /  1026.3hPa Calm     34% 0.00in /  0mm 0.0 W/m2
22:32 59.5 °F /  15.3 °C 31.8 °F /  -0.1 °C 30.31in /  1026.3hPa Calm     35% 0.00in /  0mm 0.0 W/m2
22:39 59.4 °F /  15.2 °C 31.6 °F /  -0.2 °C 30.31in /  1026.3hPa Calm     35% 0.00in /  0mm 0.0 W/m2
22:45 59.2 °F /  15.1 °C 31.5 °F /  -0.3 °C 30.32in /  1026.6hPa Calm     35% 0.00in /  0mm 0.0 W/m2
22:51 58.8 °F /  14.9 °C 32.0 °F /  0 °C 30.32in /  1026.6hPa Calm     36% 0.00in /  0mm 0.0 W/m2
22:57 58.6 °F /  14.8 °C 32.4 °F /  0.2 °C 30.32in /  1026.6hPa Calm     37% 0.00in /  0mm 0.0 W/m2
23:03 58.5 °F /  14.7 °C 32.4 °F /  0.2 °C 30.32in /  1026.6hPa Calm     37% 0.00in /  0mm 0.0 W/m2
23:09 58.3 °F /  14.6 °C 32.7 °F /  0.4 °C 30.32in /  1026.6hPa Calm     38% 0.00in /  0mm 0.0 W/m2
23:15 57.9 °F /  14.4 °C 32.5 °F /  0.3 °C 30.32in /  1026.6hPa Calm     38% 0.00in /  0mm 0.0 W/m2
23:22 57.7 °F /  14.3 °C 32.4 °F /  0.2 °C 30.32in /  1026.6hPa Calm   1.0mph /  1.6km/h 38% 0.00in /  0mm 0.0 W/m2
23:28 57.7 °F /  14.3 °C 32.4 °F /  0.2 °C 30.32in /  1026.6hPa Calm   1.0mph /  1.6km/h 38% 0.00in /  0mm 0.0 W/m2
23:34 57.7 °F /  14.3 °C 32.4 °F /  0.2 °C 30.32in /  1026.6hPa Calm     38% 0.00in /  0mm 0.0 W/m2
23:40 57.7 °F /  14.3 °C 32.4 °F /  0.2 °C 30.32in /  1026.6hPa Calm     38% 0.00in /  0mm 0.0 W/m2
23:46 57.9 °F /  14.4 °C 32.5 °F /  0.3 °C 30.32in /  1026.6hPa Calm     38% 0.00in /  0mm 0.0 W/m2
23:52 57.7 °F /  14.3 °C 32.4 °F /  0.2 °C 30.32in /  1026.6hPa Calm     38% 0.00in /  0mm 0.0 W/m2
23:59 57.6 °F /  14.2 °C 32.2 °F /  0.1 °C 30.32in /  1026.6hPa Calm   2.0mph /  3.2km/h 38% 0.00in /  0mm 0.0 W/m2
Olympia, Windhoek, Namibia
Compliments of Weather Underground - 3 mb